createdAt,value
2023-03-17T00:00:58.791Z,20.00
2023-03-17T00:01:59.824Z,20.00
2023-03-17T00:02:59.884Z,19.99
2023-03-17T00:04:00.005Z,19.99
2023-03-17T00:04:58.986Z,19.99
2023-03-17T00:06:00.050Z,19.98
2023-03-17T00:07:00.458Z,19.98
2023-03-17T00:08:00.163Z,19.97
2023-03-17T00:09:00.218Z,19.98
2023-03-17T00:10:00.277Z,19.97
2023-03-17T00:11:00.346Z,19.98
2023-03-17T00:12:00.401Z,19.96
2023-03-17T00:13:00.474Z,19.96
2023-03-17T00:14:00.508Z,19.95
2023-03-17T00:14:59.557Z,19.95
2023-03-17T00:16:00.649Z,19.95
2023-03-17T00:17:00.691Z,19.95
2023-03-17T00:17:59.730Z,19.95
2023-03-17T00:19:00.810Z,19.94
2023-03-17T00:20:00.877Z,19.95
2023-03-17T00:21:00.935Z,19.95
2023-03-17T00:22:01.147Z,19.96
2023-03-17T00:23:01.052Z,19.95
2023-03-17T00:24:01.111Z,19.93
2023-03-17T00:25:01.216Z,19.94
2023-03-17T00:26:01.245Z,19.93
2023-03-17T00:27:01.287Z,19.92
2023-03-17T00:28:01.369Z,19.92
2023-03-17T00:29:01.440Z,19.92
2023-03-17T00:30:00.492Z,19.93
2023-03-17T00:31:00.553Z,19.93
2023-03-17T00:32:00.599Z,19.93
2023-03-17T00:33:00.799Z,19.93
2023-03-17T00:34:01.712Z,19.92
2023-03-17T00:35:01.764Z,19.93
2023-03-17T00:36:01.903Z,19.92
2023-03-17T00:37:01.885Z,19.92
2023-03-17T00:38:01.933Z,19.91
2023-03-17T00:39:02.006Z,19.91
2023-03-17T00:40:02.058Z,19.90
2023-03-17T00:41:02.119Z,19.89
2023-03-17T00:42:01.181Z,19.90
2023-03-17T00:43:02.226Z,19.90
2023-03-17T00:44:02.281Z,19.90
2023-03-17T00:45:02.376Z,19.90
2023-03-17T00:46:02.406Z,19.91
2023-03-17T00:47:01.592Z,19.89
2023-03-17T00:48:02.540Z,19.88
2023-03-17T00:49:02.608Z,19.89
2023-03-17T00:50:01.654Z,19.88
2023-03-17T00:51:02.740Z,19.89
2023-03-17T00:52:01.805Z,19.88
2023-03-17T00:53:02.851Z,19.88
2023-03-17T00:54:01.938Z,19.88
2023-03-17T00:55:01.980Z,19.88
2023-03-17T00:56:03.050Z,19.86
2023-03-17T00:57:03.117Z,19.86
2023-03-17T00:58:02.185Z,19.87
2023-03-17T00:59:02.245Z,19.87
2023-03-17T01:00:03.344Z,19.87
2023-03-17T01:01:03.496Z,19.87
2023-03-17T01:02:03.478Z,19.87
2023-03-17T01:03:02.488Z,19.86
2023-03-17T01:04:03.560Z,19.86
2023-03-17T01:05:06.577Z,19.86
2023-03-17T01:06:03.609Z,19.85
2023-03-17T01:07:03.605Z,19.86
2023-03-17T01:08:02.596Z,19.84
2023-03-17T01:09:03.592Z,19.84
2023-03-17T01:10:02.575Z,19.83
2023-03-17T01:11:03.592Z,19.84
2023-03-17T01:12:03.566Z,19.83
2023-03-17T01:13:03.552Z,19.83
2023-03-17T01:14:03.556Z,19.84
2023-03-17T01:15:02.561Z,19.83
2023-03-17T01:16:03.579Z,19.81
2023-03-17T01:17:03.566Z,19.82
2023-03-17T01:18:03.536Z,19.82
2023-03-17T01:19:03.515Z,19.81
2023-03-17T01:20:03.509Z,19.80
2023-03-17T01:21:03.514Z,19.82
2023-03-17T01:22:03.501Z,19.82
2023-03-17T01:23:03.497Z,19.81
2023-03-17T01:24:03.497Z,19.80
2023-03-17T01:25:03.565Z,19.80
2023-03-17T01:26:03.569Z,19.80
2023-03-17T01:27:02.601Z,19.81
2023-03-17T01:28:03.606Z,19.81
2023-03-17T01:29:02.618Z,19.80
2023-03-17T01:30:03.653Z,19.80
2023-03-17T01:31:03.684Z,19.79
2023-03-17T01:32:03.710Z,19.80
2023-03-17T01:33:03.781Z,19.79
2023-03-17T01:34:03.775Z,19.79
2023-03-17T01:35:02.836Z,19.79
2023-03-17T01:36:03.970Z,19.79
2023-03-17T01:37:03.960Z,19.79
2023-03-17T01:38:04.017Z,19.79
2023-03-17T01:39:03.084Z,19.79
2023-03-17T01:40:03.151Z,19.78
2023-03-17T01:41:03.209Z,19.78
2023-03-17T01:42:04.276Z,19.78
2023-03-17T01:43:04.336Z,19.77
2023-03-17T01:44:04.384Z,19.77
2023-03-17T01:45:04.443Z,19.76
2023-03-17T01:46:03.546Z,19.76
2023-03-17T01:47:04.528Z,19.75
2023-03-17T01:48:04.554Z,19.74
2023-03-17T01:49:04.614Z,19.75
2023-03-17T01:50:03.606Z,19.76
2023-03-17T01:51:03.627Z,19.75
2023-03-17T01:52:03.656Z,19.75
2023-03-17T01:53:03.672Z,19.74
2023-03-17T01:54:04.675Z,19.73
2023-03-17T01:55:03.693Z,19.73
2023-03-17T01:56:04.717Z,19.73
2023-03-17T01:57:04.737Z,19.74
2023-03-17T01:58:04.757Z,19.73
2023-03-17T01:59:04.786Z,19.72
2023-03-17T02:00:04.807Z,19.73
2023-03-17T02:01:04.921Z,19.73
2023-03-17T02:02:04.935Z,19.73
2023-03-17T02:03:04.964Z,19.72
2023-03-17T02:04:05.110Z,19.73
2023-03-17T02:05:04.109Z,19.72
2023-03-17T02:06:05.122Z,19.72
2023-03-17T02:07:04.123Z,19.72
2023-03-17T02:08:05.142Z,19.72
2023-03-17T02:09:05.152Z,19.71
2023-03-17T02:10:05.201Z,19.71
2023-03-17T02:11:05.330Z,19.70
2023-03-17T02:12:05.152Z,19.70
2023-03-17T02:13:04.275Z,19.69
2023-03-17T02:14:04.229Z,19.69
2023-03-17T02:15:05.232Z,19.69
2023-03-17T02:16:05.264Z,19.69
2023-03-17T02:17:05.272Z,19.68
2023-03-17T02:18:05.303Z,19.68
2023-03-17T02:19:05.287Z,19.68
2023-03-17T02:20:05.303Z,19.69
2023-03-17T02:21:05.381Z,19.69
2023-03-17T02:22:05.355Z,19.68
2023-03-17T02:23:05.375Z,19.68
2023-03-17T02:24:05.413Z,19.68
2023-03-17T02:25:05.479Z,19.67
2023-03-17T02:26:05.486Z,19.67
2023-03-17T02:27:05.471Z,19.67
2023-03-17T02:28:05.479Z,19.67
2023-03-17T02:29:05.486Z,19.67
2023-03-17T02:30:04.492Z,19.66
2023-03-17T02:31:05.607Z,19.66
2023-03-17T02:32:05.479Z,19.66
2023-03-17T02:33:05.554Z,19.66
2023-03-17T02:34:05.474Z,19.65
2023-03-17T02:35:05.178Z,19.66
2023-03-17T02:36:04.546Z,19.64
2023-03-17T02:37:05.536Z,19.66
2023-03-17T02:38:04.462Z,19.64
2023-03-17T02:39:05.481Z,19.64
2023-03-17T02:40:04.498Z,19.63
2023-03-17T02:41:05.495Z,19.63
2023-03-17T02:42:05.497Z,19.64
2023-03-17T02:43:05.496Z,19.63
2023-03-17T02:44:05.502Z,19.63
2023-03-17T02:45:05.486Z,19.64
2023-03-17T02:46:05.571Z,19.64
2023-03-17T02:47:05.538Z,19.63
2023-03-17T02:48:05.491Z,19.62
2023-03-17T02:49:05.530Z,19.63
2023-03-17T02:50:05.477Z,19.62
2023-03-17T02:51:05.514Z,19.62
2023-03-17T02:52:04.480Z,19.62
2023-03-17T02:53:04.499Z,19.61
2023-03-17T02:54:05.461Z,19.61
2023-03-17T02:55:04.457Z,19.61
2023-03-17T02:56:05.457Z,19.61
2023-03-17T02:57:05.454Z,19.61
2023-03-17T02:58:04.452Z,19.60
2023-03-17T02:59:05.449Z,19.60
2023-03-17T03:00:05.468Z,19.60
2023-03-17T03:01:05.484Z,19.59
2023-03-17T03:02:05.445Z,19.60
2023-03-17T03:03:05.454Z,19.59
2023-03-17T03:04:05.437Z,19.58
2023-03-17T03:05:04.417Z,19.58
2023-03-17T03:06:05.422Z,19.58
2023-03-17T03:07:05.425Z,19.57
2023-03-17T03:08:05.407Z,19.57
2023-03-17T03:09:05.442Z,19.57
2023-03-17T03:10:05.427Z,19.57
2023-03-17T03:11:05.433Z,19.56
2023-03-17T03:12:05.431Z,19.56
2023-03-17T03:13:05.405Z,19.56
2023-03-17T03:14:05.390Z,19.57
2023-03-17T03:15:05.439Z,19.56
2023-03-17T03:16:04.455Z,19.56
2023-03-17T03:17:05.404Z,19.56
2023-03-17T03:18:05.396Z,19.56
2023-03-17T03:19:04.422Z,19.57
2023-03-17T03:20:05.388Z,19.55
2023-03-17T03:21:04.386Z,19.54
2023-03-17T03:22:04.430Z,19.53
2023-03-17T03:23:05.404Z,19.53
2023-03-17T03:24:04.403Z,19.53
2023-03-17T03:25:05.437Z,19.54
2023-03-17T03:26:04.453Z,19.54
2023-03-17T03:27:04.453Z,19.54
2023-03-17T03:28:05.409Z,19.53
2023-03-17T03:29:05.384Z,19.54
2023-03-17T03:30:05.403Z,19.54
2023-03-17T03:31:05.437Z,19.54
2023-03-17T03:32:05.393Z,19.53
2023-03-17T03:33:04.525Z,19.53
2023-03-17T03:34:05.411Z,19.52
2023-03-17T03:35:05.398Z,19.52
2023-03-17T03:36:05.496Z,19.51
2023-03-17T03:37:05.471Z,19.53
2023-03-17T03:38:04.434Z,19.53
2023-03-17T03:39:04.404Z,19.51
2023-03-17T03:40:05.412Z,19.51
2023-03-17T03:41:04.443Z,19.52
2023-03-17T03:42:04.486Z,19.51
2023-03-17T03:43:16.369Z,19.51
2023-03-17T03:44:05.421Z,19.51
2023-03-17T03:45:05.415Z,19.51
2023-03-17T03:46:04.520Z,19.49
2023-03-17T03:47:05.416Z,19.49
2023-03-17T03:48:05.404Z,19.50
2023-03-17T03:49:04.414Z,19.49
2023-03-17T03:50:05.382Z,19.50
2023-03-17T03:51:04.403Z,19.49
2023-03-17T03:52:05.366Z,19.49
2023-03-17T03:53:04.381Z,19.49
2023-03-17T03:54:05.352Z,19.49
2023-03-17T03:55:05.350Z,19.47
2023-03-17T03:56:05.359Z,19.49
2023-03-17T03:57:05.357Z,19.47
2023-03-17T03:58:04.334Z,19.48
2023-03-17T03:59:05.340Z,19.48
2023-03-17T04:00:05.311Z,19.49
2023-03-17T04:01:04.319Z,19.47
2023-03-17T04:02:05.302Z,19.47
2023-03-17T04:03:05.443Z,19.47
2023-03-17T04:04:05.281Z,19.49
2023-03-17T04:05:04.363Z,19.47
2023-03-17T04:06:05.264Z,19.48
2023-03-17T04:07:05.284Z,19.47
2023-03-17T04:08:05.265Z,19.47
2023-03-17T04:09:05.241Z,19.47
2023-03-17T04:10:05.245Z,19.49
2023-03-17T04:11:05.255Z,19.48
2023-03-17T04:12:05.229Z,19.49
2023-03-17T04:13:05.255Z,19.49
2023-03-17T04:14:05.215Z,19.51
2023-03-17T04:15:05.210Z,19.50
2023-03-17T04:16:05.267Z,19.51
2023-03-17T04:17:05.233Z,19.51
2023-03-17T04:18:05.183Z,19.52
2023-03-17T04:19:05.215Z,19.53
2023-03-17T04:20:05.187Z,19.54
2023-03-17T04:21:05.167Z,19.54
2023-03-17T04:22:05.168Z,19.54
2023-03-17T04:23:05.169Z,19.55
2023-03-17T04:24:05.180Z,19.55
2023-03-17T04:25:05.130Z,19.55
2023-03-17T04:26:04.201Z,19.56
2023-03-17T04:27:06.209Z,19.56
2023-03-17T04:28:04.118Z,19.56
2023-03-17T04:29:04.134Z,19.57
2023-03-17T04:30:04.098Z,19.58
2023-03-17T04:31:05.088Z,19.58
2023-03-17T04:32:04.087Z,19.58
2023-03-17T04:33:05.152Z,19.58
2023-03-17T04:34:05.078Z,19.59
2023-03-17T04:35:05.072Z,19.59
2023-03-17T04:36:05.237Z,19.60
2023-03-17T04:37:05.052Z,19.61
2023-03-17T04:38:05.073Z,19.61
2023-03-17T04:39:04.114Z,19.61
2023-03-17T04:40:04.019Z,19.62
2023-03-17T04:41:05.027Z,19.62
2023-03-17T04:42:05.003Z,19.63
2023-03-17T04:43:04.997Z,19.63
2023-03-17T04:44:05.044Z,19.63
2023-03-17T04:45:05.070Z,19.64
2023-03-17T04:46:05.041Z,19.64
2023-03-17T04:47:03.982Z,19.65
2023-03-17T04:48:04.977Z,19.66
2023-03-17T04:49:04.976Z,19.65
2023-03-17T04:50:04.960Z,19.65
2023-03-17T04:51:03.951Z,19.65
2023-03-17T04:52:04.948Z,19.65
2023-03-17T04:53:03.954Z,19.66
2023-03-17T04:54:04.937Z,19.66
2023-03-17T04:55:04.949Z,19.67
2023-03-17T04:56:04.975Z,19.67
2023-03-17T04:57:05.007Z,19.67
2023-03-17T04:58:05.028Z,19.68
2023-03-17T04:59:05.083Z,19.67
2023-03-17T05:00:05.086Z,19.69
2023-03-17T05:01:05.235Z,19.69
2023-03-17T05:02:04.247Z,19.69
2023-03-17T05:03:09.027Z,19.69
2023-03-17T05:04:05.188Z,19.69
2023-03-17T05:05:05.165Z,19.68
2023-03-17T05:06:04.165Z,19.69
2023-03-17T05:07:05.158Z,19.69
2023-03-17T05:08:05.150Z,19.69
2023-03-17T05:09:05.172Z,19.69
2023-03-17T05:10:05.134Z,19.69
2023-03-17T05:11:05.139Z,19.70
2023-03-17T05:12:05.115Z,19.70
2023-03-17T05:13:04.121Z,19.69
2023-03-17T05:14:04.113Z,19.70
2023-03-17T05:15:05.186Z,19.70
2023-03-17T05:16:04.097Z,19.70
2023-03-17T05:17:05.224Z,19.70
2023-03-17T05:18:05.163Z,19.71
2023-03-17T05:19:05.082Z,19.70
2023-03-17T05:20:05.062Z,19.70
2023-03-17T05:21:04.056Z,19.70
2023-03-17T05:22:05.051Z,19.70
2023-03-17T05:23:05.061Z,19.70
2023-03-17T05:24:05.044Z,19.70
2023-03-17T05:25:05.042Z,19.70
2023-03-17T05:26:05.027Z,19.70
2023-03-17T05:27:05.015Z,19.70
2023-03-17T05:28:05.011Z,19.70
2023-03-17T05:29:05.004Z,19.70
2023-03-17T05:30:05.007Z,19.71
2023-03-17T05:31:05.091Z,19.70
2023-03-17T05:32:04.997Z,19.70
2023-03-17T05:33:05.173Z,19.70
2023-03-17T05:34:04.126Z,19.70
2023-03-17T05:35:05.134Z,19.71
2023-03-17T05:36:04.312Z,19.71
2023-03-17T05:37:04.302Z,19.70
2023-03-17T05:38:05.302Z,19.71
2023-03-17T05:39:05.379Z,19.71
2023-03-17T05:40:05.425Z,19.72
2023-03-17T05:41:05.496Z,19.72
2023-03-17T05:42:04.544Z,19.72
2023-03-17T05:43:05.627Z,19.73
2023-03-17T05:44:05.678Z,19.73
2023-03-17T05:45:05.744Z,19.72
2023-03-17T05:46:05.863Z,19.72
2023-03-17T05:47:05.951Z,19.72
2023-03-17T05:48:05.935Z,19.73
2023-03-17T05:49:06.056Z,19.72
2023-03-17T05:51:24.097Z,19.69
2023-03-17T05:52:25.091Z,19.71
2023-03-17T05:53:25.079Z,19.72
2023-03-17T05:54:25.115Z,19.72
2023-03-17T05:55:24.071Z,19.73
2023-03-17T05:56:24.071Z,19.74
2023-03-17T05:57:25.044Z,19.74
2023-03-17T05:58:25.037Z,19.74
2023-03-17T05:59:25.042Z,19.75
2023-03-17T06:00:25.034Z,19.75
2023-03-17T06:01:24.026Z,19.76
2023-03-17T06:02:25.027Z,19.76
2023-03-17T06:03:24.069Z,19.76
2023-03-17T06:04:25.038Z,19.76
2023-03-17T06:23:26.294Z,19.81
2023-03-17T06:24:25.393Z,19.82
2023-03-17T06:25:25.471Z,19.88
2023-03-17T06:26:25.511Z,19.91
2023-03-17T06:28:25.612Z,19.94
2023-03-17T06:29:25.690Z,19.97
2023-03-17T06:31:25.798Z,19.97
2023-03-17T06:32:25.896Z,19.95
2023-03-17T06:33:25.847Z,19.96
2023-03-17T06:34:25.922Z,19.96
2023-03-17T06:35:26.047Z,19.98
2023-03-17T06:36:26.055Z,20.01
2023-03-17T06:37:26.095Z,20.03
2023-03-17T06:38:26.122Z,20.03
2023-03-17T06:40:25.237Z,20.08
2023-03-17T06:41:26.298Z,20.09
2023-03-17T06:42:26.301Z,20.13
2023-03-17T06:43:26.346Z,20.16
2023-03-17T06:44:26.359Z,20.18
2023-03-17T06:45:26.699Z,20.19
2023-03-17T06:46:26.458Z,20.19
2023-03-17T06:47:26.448Z,20.20
2023-03-17T06:48:26.491Z,20.22
2023-03-17T06:49:26.573Z,20.22
2023-03-17T06:50:26.825Z,20.26
2023-03-17T06:51:26.973Z,20.27
2023-03-17T06:52:26.655Z,20.31
2023-03-17T06:53:26.816Z,20.35
2023-03-17T06:54:26.998Z,20.37
2023-03-17T06:55:26.839Z,20.38
2023-03-17T06:56:30.233Z,20.22
2023-03-17T06:57:26.647Z,19.85
2023-03-17T06:58:25.826Z,19.62
2023-03-17T06:59:27.484Z,19.51
2023-03-17T07:00:25.644Z,19.25
2023-03-17T07:01:25.710Z,18.96
2023-03-17T07:02:26.863Z,18.99
2023-03-17T07:03:26.768Z,19.17
2023-03-17T07:04:26.723Z,19.38
2023-03-17T07:05:26.653Z,19.60
2023-03-17T07:06:26.663Z,19.83
2023-03-17T07:07:26.043Z,20.03
2023-03-17T07:08:25.799Z,20.19
2023-03-17T07:09:26.885Z,20.35
2023-03-17T07:10:26.824Z,20.53
2023-03-17T07:11:25.876Z,20.68
2023-03-17T07:12:26.901Z,20.80
2023-03-17T07:13:26.839Z,20.89
2023-03-17T07:14:25.986Z,20.96
2023-03-17T07:15:26.944Z,21.02
2023-03-17T07:16:26.996Z,21.10
2023-03-17T07:17:26.970Z,21.15
2023-03-17T07:18:26.031Z,21.20
2023-03-17T07:19:27.098Z,21.25
2023-03-17T07:20:27.140Z,21.30
2023-03-17T07:21:27.193Z,21.32
2023-03-17T07:22:27.176Z,21.37
2023-03-17T07:23:27.208Z,21.40
2023-03-17T07:24:27.557Z,21.44
2023-03-17T07:25:27.336Z,21.47
2023-03-17T07:26:27.293Z,21.50
2023-03-17T07:27:26.320Z,21.52
2023-03-17T07:28:26.321Z,21.57
2023-03-17T07:29:26.297Z,21.58
2023-03-17T07:30:27.264Z,21.61
2023-03-17T07:31:26.421Z,21.63
2023-03-17T07:32:27.394Z,21.65
2023-03-17T07:33:26.264Z,21.65
2023-03-17T07:34:27.349Z,21.68
2023-03-17T07:35:27.313Z,21.71
2023-03-17T07:36:27.268Z,21.74
2023-03-17T07:37:27.294Z,21.75
2023-03-17T07:38:27.328Z,21.77
2023-03-17T07:39:26.277Z,21.81
2023-03-17T07:40:27.309Z,21.82
2023-03-17T07:41:27.376Z,21.83
2023-03-17T07:42:27.283Z,21.85
2023-03-17T07:43:27.346Z,21.87
2023-03-17T07:44:27.350Z,21.90
2023-03-17T07:45:27.461Z,21.91
2023-03-17T07:46:27.481Z,21.94
2023-03-17T07:47:27.478Z,21.96
2023-03-17T07:48:27.509Z,21.97
2023-03-17T07:49:40.499Z,21.99
2023-03-17T07:50:27.595Z,22.00
2023-03-17T07:51:27.538Z,22.03
2023-03-17T07:52:26.654Z,22.06
2023-03-17T07:53:27.579Z,22.13
2023-03-17T07:54:27.539Z,22.15
2023-03-17T07:55:27.831Z,22.15
2023-03-17T07:56:27.588Z,22.16
2023-03-17T07:57:27.596Z,22.18
2023-03-17T07:58:27.559Z,22.15
2023-03-17T07:59:26.494Z,22.13
2023-03-17T08:00:27.553Z,22.10
2023-03-17T08:01:26.484Z,22.07
2023-03-17T08:02:26.549Z,22.03
2023-03-17T08:03:27.500Z,22.01
2023-03-17T08:04:27.476Z,21.99
2023-03-17T08:05:27.455Z,21.99
2023-03-17T08:06:27.477Z,21.98
2023-03-17T08:07:27.461Z,21.97
2023-03-17T08:08:27.477Z,21.95
2023-03-17T08:09:27.417Z,21.96
2023-03-17T08:10:27.433Z,21.97
2023-03-17T08:11:29.370Z,21.97
2023-03-17T08:12:27.449Z,21.98
2023-03-17T08:13:27.419Z,21.99
2023-03-17T08:14:26.389Z,22.00
2023-03-17T08:15:27.389Z,22.03
2023-03-17T08:16:27.421Z,22.06
2023-03-17T08:17:27.435Z,22.06
2023-03-17T08:18:27.389Z,22.08
2023-03-17T08:19:27.355Z,22.09
2023-03-17T08:20:27.383Z,22.10
2023-03-17T08:21:27.362Z,22.12
2023-03-17T08:22:27.364Z,22.13
2023-03-17T08:23:27.385Z,22.16
2023-03-17T08:24:27.334Z,22.17
2023-03-17T08:25:27.366Z,22.18
2023-03-17T08:26:27.334Z,22.20
2023-03-17T08:27:27.357Z,22.23
2023-03-17T08:28:27.355Z,22.25
2023-03-17T08:29:26.325Z,22.25
2023-03-17T08:30:27.516Z,22.27
2023-03-17T08:31:27.384Z,22.29
2023-03-17T08:32:27.410Z,22.32
2023-03-17T08:33:27.279Z,22.36
2023-03-17T08:34:26.379Z,22.39
2023-03-17T08:35:27.353Z,22.38
2023-03-17T08:36:27.252Z,22.38
2023-03-17T08:37:27.350Z,22.41
2023-03-17T08:38:27.266Z,22.42
2023-03-17T08:39:27.229Z,22.43
2023-03-17T08:40:26.259Z,22.44
2023-03-17T08:41:27.241Z,22.44
2023-03-17T08:42:27.232Z,22.44
2023-03-17T08:43:27.206Z,22.47
2023-03-17T08:44:27.229Z,22.48
2023-03-17T08:45:27.216Z,22.49
2023-03-17T08:46:27.485Z,22.49
2023-03-17T08:47:27.218Z,22.52
2023-03-17T08:48:27.195Z,22.55
2023-03-17T08:49:27.238Z,22.54
2023-03-17T08:50:27.541Z,22.52
2023-03-17T08:51:27.470Z,22.48
2023-03-17T08:52:27.187Z,22.43
2023-03-17T08:53:27.172Z,22.41
2023-03-17T08:54:27.359Z,22.44
2023-03-17T08:55:26.145Z,22.50
2023-03-17T08:56:27.243Z,22.57
2023-03-17T08:57:26.119Z,22.67
2023-03-17T08:58:27.180Z,22.68
2023-03-17T08:59:27.177Z,22.74
2023-03-17T09:00:26.232Z,22.78
2023-03-17T09:01:27.466Z,22.82
2023-03-17T09:02:27.358Z,22.86
2023-03-17T09:03:26.419Z,22.88
2023-03-17T09:04:27.491Z,22.90
2023-03-17T09:05:27.514Z,22.93
2023-03-17T09:06:27.541Z,22.93
2023-03-17T09:07:26.584Z,22.90
2023-03-17T09:08:27.659Z,22.90
2023-03-17T09:09:27.729Z,22.89
2023-03-17T09:10:26.810Z,22.87
2023-03-17T09:11:26.809Z,22.83
2023-03-17T09:12:26.971Z,22.75
2023-03-17T09:13:28.033Z,22.67
2023-03-17T09:14:27.862Z,22.60
2023-03-17T09:15:27.891Z,22.51
2023-03-17T09:16:27.081Z,22.48
2023-03-17T09:17:27.874Z,22.48
2023-03-17T09:18:27.883Z,22.54
2023-03-17T09:19:27.870Z,22.61
2023-03-17T09:20:27.939Z,22.62
2023-03-17T09:21:27.900Z,22.63
2023-03-17T09:22:28.027Z,22.70
2023-03-17T09:23:28.193Z,22.72
2023-03-17T09:24:27.880Z,22.79
2023-03-17T09:25:26.906Z,22.79
2023-03-17T09:26:27.908Z,22.76
2023-03-17T09:27:27.909Z,22.69
2023-03-17T09:28:27.897Z,22.67
2023-03-17T09:29:27.948Z,22.63
2023-03-17T09:30:27.942Z,22.57
2023-03-17T09:31:28.086Z,22.54
2023-03-17T09:32:28.028Z,22.50
2023-03-17T09:33:27.051Z,22.47
2023-03-17T09:34:28.001Z,22.44
2023-03-17T09:35:28.086Z,22.40
2023-03-17T09:36:28.179Z,22.37
2023-03-17T09:37:27.146Z,22.36
2023-03-17T09:38:28.485Z,22.34
2023-03-17T09:39:28.243Z,22.14
2023-03-17T09:40:28.785Z,22.09
2023-03-17T09:41:28.446Z,22.02
2023-03-17T09:42:28.374Z,22.01
2023-03-17T09:43:27.473Z,21.98
2023-03-17T09:44:28.503Z,21.95
2023-03-17T09:45:28.523Z,21.81
2023-03-17T09:46:28.594Z,21.52
2023-03-17T09:47:28.571Z,21.10
2023-03-17T09:48:28.656Z,20.81
2023-03-17T09:49:28.660Z,20.64
2023-03-17T09:50:28.961Z,20.55
2023-03-17T09:51:28.764Z,20.34
2023-03-17T09:52:28.689Z,20.26
2023-03-17T09:53:28.710Z,20.05
2023-03-17T09:54:28.771Z,20.01
2023-03-17T09:55:29.114Z,20.07
2023-03-17T09:56:29.380Z,20.18
2023-03-17T09:57:29.115Z,20.31
2023-03-17T09:58:27.949Z,20.56
2023-03-17T09:59:28.188Z,20.83
2023-03-17T10:00:29.181Z,21.06
2023-03-17T10:01:28.127Z,21.28
2023-03-17T10:02:28.106Z,21.52
2023-03-17T10:03:29.457Z,21.75
2023-03-17T10:04:29.357Z,21.90
2023-03-17T10:05:28.283Z,22.07
2023-03-17T10:06:29.230Z,22.23
2023-03-17T10:07:28.272Z,22.31
2023-03-17T10:08:32.066Z,22.43
2023-03-17T10:09:29.328Z,22.53
2023-03-17T10:10:28.787Z,22.74
2023-03-17T10:11:28.281Z,22.77
2023-03-17T10:12:28.341Z,22.83
2023-03-17T10:13:29.239Z,22.92
2023-03-17T10:14:29.263Z,22.98
2023-03-17T10:15:29.786Z,23.04
2023-03-17T10:16:29.270Z,23.12
2023-03-17T10:17:29.250Z,23.17
2023-03-17T10:18:29.257Z,23.22
2023-03-17T10:19:29.307Z,23.28
2023-03-17T10:20:29.201Z,23.30
2023-03-17T10:21:29.192Z,23.37
2023-03-17T10:22:29.191Z,23.42
2023-03-17T10:23:29.223Z,23.43
2023-03-17T10:24:29.193Z,23.44
2023-03-17T10:25:29.786Z,23.44
2023-03-17T10:26:28.219Z,23.43
2023-03-17T10:27:29.152Z,23.51
2023-03-17T10:28:29.150Z,23.54
2023-03-17T10:29:29.136Z,23.58
2023-03-17T10:30:28.174Z,23.64
2023-03-17T10:31:28.175Z,23.71
2023-03-17T10:32:29.205Z,23.67
2023-03-17T10:33:29.131Z,23.65
2023-03-17T10:34:29.139Z,23.62
2023-03-17T10:35:29.752Z,23.63
2023-03-17T10:36:29.110Z,23.58
2023-03-17T10:37:29.159Z,23.52
2023-03-17T10:38:29.092Z,23.51
2023-03-17T10:39:32.112Z,23.53
2023-03-17T10:40:29.478Z,23.53
2023-03-17T10:41:29.089Z,23.51
2023-03-17T10:42:29.598Z,23.52
2023-03-17T10:43:29.061Z,23.54
2023-03-17T10:44:29.049Z,23.50
2023-03-17T10:45:29.066Z,23.44
2023-03-17T10:46:28.471Z,23.22
2023-03-17T10:47:29.048Z,22.72
2023-03-17T10:48:29.143Z,22.16
2023-03-17T10:49:29.076Z,22.06
2023-03-17T10:50:29.569Z,21.95
2023-03-17T10:51:28.447Z,21.91
2023-03-17T10:52:28.011Z,21.97
2023-03-17T10:53:29.244Z,22.07
2023-03-17T10:54:29.225Z,22.19
2023-03-17T10:55:29.015Z,22.33
2023-03-17T10:56:28.115Z,22.43
2023-03-17T10:57:29.359Z,22.51
2023-03-17T10:58:28.133Z,22.58
2023-03-17T10:59:29.078Z,22.63
2023-03-17T11:00:28.237Z,22.69
2023-03-17T11:01:28.981Z,22.73
2023-03-17T11:02:28.966Z,22.79
2023-03-17T11:03:29.026Z,22.81
2023-03-17T11:04:28.990Z,22.85
2023-03-17T11:05:28.983Z,22.88
2023-03-17T11:06:27.950Z,22.89
2023-03-17T11:07:29.159Z,22.89
2023-03-17T11:08:28.893Z,22.91
2023-03-17T11:09:28.899Z,22.97
2023-03-17T11:10:29.329Z,22.99
2023-03-17T11:11:29.006Z,23.01
2023-03-17T11:12:28.109Z,23.02
2023-03-17T11:13:28.184Z,23.02
2023-03-17T11:14:29.202Z,23.03
2023-03-17T11:15:28.244Z,23.07
2023-03-17T11:16:29.366Z,23.07
2023-03-17T11:17:29.365Z,23.08
2023-03-17T11:18:30.979Z,23.08
2023-03-17T11:19:29.356Z,23.10
2023-03-17T11:20:29.648Z,23.10
2023-03-17T11:21:29.340Z,23.11
2023-03-17T11:22:29.374Z,23.12
2023-03-17T11:23:29.554Z,23.13
2023-03-17T11:24:31.396Z,23.14
2023-03-17T11:25:28.317Z,23.17
2023-03-17T11:26:29.345Z,23.17
2023-03-17T11:27:29.364Z,23.19
2023-03-17T11:28:29.464Z,23.21
2023-03-17T11:29:29.345Z,23.21
2023-03-17T11:30:29.624Z,23.22
2023-03-17T11:31:29.291Z,23.21
2023-03-17T11:32:28.383Z,23.20
2023-03-17T11:33:29.255Z,23.18
2023-03-17T11:34:28.266Z,23.16
2023-03-17T11:35:29.229Z,23.15
2023-03-17T11:36:29.229Z,23.16
2023-03-17T11:37:29.279Z,23.17
2023-03-17T11:38:29.253Z,23.15
2023-03-17T11:39:29.289Z,23.14
2023-03-17T11:41:28.435Z,23.14
2023-03-17T11:42:29.421Z,23.12
2023-03-17T11:43:29.192Z,23.10
2023-03-17T11:44:29.180Z,23.07
2023-03-17T11:45:29.181Z,23.03
2023-03-17T11:46:28.234Z,22.98
2023-03-17T11:47:29.921Z,22.95
2023-03-17T11:48:29.150Z,22.91
2023-03-17T11:49:29.151Z,22.90
2023-03-17T11:50:29.576Z,22.86
2023-03-17T11:51:29.255Z,22.84
2023-03-17T11:52:29.297Z,22.83
2023-03-17T11:55:29.426Z,22.77
2023-03-17T11:56:29.394Z,22.76
2023-03-17T11:57:29.435Z,22.75
2023-03-17T11:58:29.403Z,22.74
2023-03-17T11:59:29.424Z,22.73
2023-03-17T12:00:29.861Z,22.70
2023-03-17T12:01:29.444Z,22.69
2023-03-17T12:02:29.447Z,22.68
2023-03-17T12:03:29.540Z,22.68
2023-03-17T12:04:28.447Z,22.67
2023-03-17T12:05:29.387Z,22.66
2023-03-17T12:06:29.383Z,22.66
2023-03-17T12:07:29.382Z,22.65
2023-03-17T12:08:29.410Z,22.65
2023-03-17T12:09:29.403Z,22.63
2023-03-17T12:10:29.778Z,22.62
2023-03-17T12:11:29.415Z,22.61
2023-03-17T12:12:29.435Z,22.60
2023-03-17T12:13:28.384Z,22.59
2023-03-17T12:14:29.410Z,22.59
2023-03-17T12:15:29.522Z,22.57
2023-03-17T12:16:29.463Z,22.59
2023-03-17T12:17:30.383Z,22.57
2023-03-17T12:18:29.450Z,22.57
2023-03-17T12:19:29.472Z,22.56
2023-03-17T12:20:29.950Z,22.55
2023-03-17T12:21:29.493Z,22.54
2023-03-17T12:22:29.515Z,22.53
2023-03-17T12:23:29.558Z,22.52
2023-03-17T12:24:29.577Z,22.52
2023-03-17T12:25:29.558Z,22.51
2023-03-17T12:26:29.623Z,22.49
2023-03-17T12:27:28.618Z,22.49
2023-03-17T12:28:29.615Z,22.48
2023-03-17T12:29:29.656Z,22.48
2023-03-17T12:30:30.077Z,22.47
2023-03-17T12:31:29.747Z,22.47
2023-03-17T12:32:29.802Z,22.45
2023-03-17T12:33:29.859Z,22.44
2023-03-17T12:34:29.731Z,22.43
2023-03-17T12:35:29.212Z,22.46
2023-03-17T12:36:28.778Z,22.46
2023-03-17T12:37:28.937Z,22.46
2023-03-17T12:38:29.815Z,22.45
2023-03-17T12:39:29.817Z,22.45
2023-03-17T12:40:30.092Z,22.43
2023-03-17T12:41:29.926Z,22.43
2023-03-17T12:42:28.904Z,22.43
2023-03-17T12:43:29.958Z,22.42
2023-03-17T12:44:29.951Z,22.41
2023-03-17T12:45:30.294Z,22.41
2023-03-17T12:46:30.259Z,22.40
2023-03-17T12:47:30.055Z,22.39
2023-03-17T12:48:30.057Z,22.39
2023-03-17T12:49:30.069Z,22.39
2023-03-17T12:50:30.096Z,22.38
2023-03-17T12:51:30.128Z,22.38
2023-03-17T12:52:29.158Z,22.38
2023-03-17T12:53:30.186Z,22.37
2023-03-17T12:54:30.207Z,22.37
2023-03-17T12:55:29.438Z,22.37
2023-03-17T12:56:29.278Z,22.36
2023-03-17T12:57:30.349Z,22.34
2023-03-17T12:58:30.331Z,22.34
2023-03-17T12:59:29.407Z,22.34
2023-03-17T13:00:29.426Z,22.32
2023-03-17T13:01:30.481Z,22.32
2023-03-17T13:02:30.510Z,22.32
2023-03-17T13:03:30.693Z,22.31
2023-03-17T13:04:30.567Z,22.29
2023-03-17T13:05:30.982Z,22.27
2023-03-17T13:06:30.684Z,22.27
2023-03-17T13:07:30.748Z,22.27
2023-03-17T13:08:30.818Z,22.26
2023-03-17T13:09:31.784Z,22.27
2023-03-17T13:10:30.879Z,22.27
2023-03-17T13:11:30.917Z,22.27
2023-03-17T13:12:30.977Z,22.27
2023-03-17T13:13:30.004Z,22.27
2023-03-17T13:14:31.050Z,22.27
2023-03-17T13:15:31.404Z,22.26
2023-03-17T13:16:31.191Z,22.26
2023-03-17T13:17:31.191Z,22.26
2023-03-17T13:18:31.209Z,22.26